Time;durP1;ratioP1;P1;durP2;ratioP2;P2;SDS_P1;SDS_P2;PMS_P1;PMS_P2;Temp;Humidity;BMP_temperature;BMP_pressure;BME280_temperature;BME280_humidity;BME280_pressure;Samples;Min_cycle;Max_cycle;Signal;HPM_P1;HPM_P2
2023/09/21 00:01:19;;;;;;;5.23;3.63;;;;;;;18.58;62.44;95429.69;4990689;28;20180;-69
2023/09/21 00:03:45;;;;;;;6.80;3.70;;;;;;;18.63;62.10;95424.78;4986112;28;20180;-69
2023/09/21 00:06:13;;;;;;;4.97;3.00;;;;;;;18.54;62.40;95428.28;4970398;28;20698;-68
2023/09/21 00:08:38;;;;;;;6.67;3.47;;;;;;;18.35;62.96;95422.00;4970663;28;20181;-69
2023/09/21 00:11:07;;;;;;;4.73;3.40;;;;;;;18.17;63.73;95419.19;4971159;28;20417;-69
2023/09/21 00:13:33;;;;;;;5.13;3.40;;;;;;;18.25;63.27;95417.66;4970441;28;20232;-69
2023/09/21 00:16:00;;;;;;;6.87;3.63;;;;;;;18.32;63.31;95413.47;4969908;28;20453;-69
2023/09/21 00:18:26;;;;;;;4.87;3.40;;;;;;;18.24;63.50;95422.13;4970841;28;20939;-68
2023/09/21 00:20:54;;;;;;;5.90;3.23;;;;;;;18.25;63.70;95415.00;4971216;28;20499;-70
2023/09/21 00:23:24;;;;;;;6.53;3.33;;;;;;;18.24;63.54;95418.66;4971576;28;20446;-68
2023/09/21 00:25:50;;;;;;;12.10;4.13;;;;;;;18.17;63.25;95405.91;4976243;28;20446;-68
2023/09/21 00:28:19;;;;;;;7.93;3.13;;;;;;;18.18;63.22;95406.75;4990407;28;20446;-69
2023/09/21 00:30:45;;;;;;;4.90;3.03;;;;;;;18.19;63.25;95408.44;4990469;28;20629;-69
2023/09/21 00:33:11;;;;;;;5.07;3.07;;;;;;;18.20;63.23;95408.28;4990414;28;20568;-69
2023/09/21 00:35:39;;;;;;;4.07;3.10;;;;;;;18.18;63.08;95401.44;4989700;28;21177;-68
2023/09/21 00:38:10;;;;;;;8.20;3.30;;;;;;;18.21;63.03;95398.50;4990252;28;20197;-69
2023/09/21 00:40:39;;;;;;;7.90;3.20;;;;;;;18.10;63.29;95403.94;4986682;28;20413;-69
2023/09/21 00:43:09;;;;;;;5.93;3.00;;;;;;;17.93;63.85;95395.69;4970884;28;20413;-68
2023/09/21 00:45:37;;;;;;;4.20;2.70;;;;;;;18.15;63.18;95401.72;4970154;28;20421;-70
2023/09/21 00:48:04;;;;;;;3.93;3.10;;;;;;;17.98;63.76;95389.97;4977879;28;20440;-68
2023/09/21 00:50:30;;;;;;;8.13;3.13;;;;;;;17.99;63.70;95396.94;4987292;28;20513;-68
2023/09/21 00:52:56;;;;;;;5.17;3.30;;;;;;;18.05;63.89;95398.19;4970741;28;20457;-69
2023/09/21 00:55:25;;;;;;;7.97;3.63;;;;;;;17.89;64.15;95391.63;4971466;28;20424;-69
2023/09/21 00:57:57;;;;;;;5.20;3.27;;;;;;;17.82;64.57;95393.13;4989636;28;20447;-69
2023/09/21 01:00:25;;;;;;;4.23;3.33;;;;;;;17.79;65.43;95388.09;4989547;28;20558;-69
2023/09/21 01:02:53;;;;;;;5.60;3.60;;;;;;;18.04;64.80;95392.03;4989627;28;20412;-69
2023/09/21 01:05:21;;;;;;;3.70;3.30;;;;;;;18.05;64.96;95382.25;4972335;28;20436;-69
2023/09/21 01:07:48;;;;;;;16.97;5.40;;;;;;;17.99;65.56;95387.16;4969318;28;20452;-69
2023/09/21 01:10:15;;;;;;;6.77;3.40;;;;;;;17.99;65.58;95394.28;4969645;28;20806;-68
2023/09/21 01:12:49;;;;;;;5.50;3.40;;;;;;;17.94;65.93;95378.75;4970032;28;20568;-69
2023/09/21 01:15:15;;;;;;;5.27;3.33;;;;;;;17.93;66.06;95379.75;4969145;28;20436;-69
2023/09/21 01:17:43;;;;;;;11.30;4.07;;;;;;;17.93;65.42;95379.75;4968928;28;20546;-69
2023/09/21 01:20:29;;;;;;;14.23;4.20;;;;;;;17.86;65.32;95365.34;4969327;28;20500;-69
2023/09/21 01:23:04;;;;;;;4.97;3.97;;;;;;;17.89;65.47;95367.72;4969726;28;20444;-69
2023/09/21 01:25:30;;;;;;;5.40;3.30;;;;;;;17.67;65.36;95371.44;4964848;28;20423;-69
2023/09/21 01:27:55;;;;;;;6.90;3.20;;;;;;;17.80;65.05;95365.03;4990902;28;21076;-69
2023/09/21 01:30:21;;;;;;;5.00;3.40;;;;;;;17.71;65.13;95367.50;4989993;28;20184;-69
2023/09/21 01:32:48;;;;;;;5.60;3.13;;;;;;;17.61;65.75;95373.78;4984172;28;20197;-68
2023/09/21 01:35:16;;;;;;;7.53;3.10;;;;;;;17.54;65.97;95376.13;4968636;28;20166;-68
2023/09/21 01:37:41;;;;;;;4.53;3.77;;;;;;;17.49;65.79;95367.75;4969049;28;20442;-67
2023/09/21 01:40:15;;;;;;;11.90;3.40;;;;;;;17.29;66.40;95362.38;4976786;28;20495;-70
2023/09/21 01:42:40;;;;;;;5.90;3.67;;;;;;;17.22;66.72;95363.88;4988553;28;20165;-69
2023/09/21 01:45:12;;;;;;;4.80;3.17;;;;;;;17.17;66.95;95366.06;4988229;28;20420;-69
2023/09/21 01:47:37;;;;;;;3.57;3.00;;;;;;;16.81;68.63;95362.16;4988220;28;20191;-69
2023/09/21 01:50:11;;;;;;;5.70;3.70;;;;;;;16.80;68.93;95352.53;4988191;28;20412;-69
2023/09/21 01:52:37;;;;;;;4.80;3.83;;;;;;;16.60;69.44;95351.53;4988801;28;20195;-69
2023/09/21 01:55:10;;;;;;;6.17;4.07;;;;;;;16.48;69.73;95342.81;4987836;28;20412;-69
2023/09/21 01:57:36;;;;;;;3.90;3.20;;;;;;;15.98;71.05;95345.22;4987680;28;20459;-69
2023/09/21 02:00:14;;;;;;;8.27;3.80;;;;;;;16.46;70.10;95334.16;4987638;28;20427;-68
2023/09/21 02:02:40;;;;;;;4.53;3.30;;;;;;;16.59;69.63;95332.16;4987651;28;20414;-69
2023/09/21 02:05:10;;;;;;;6.73;3.87;;;;;;;16.95;68.03;95330.00;4972334;28;20421;-68
2023/09/21 02:07:36;;;;;;;4.73;3.90;;;;;;;17.03;67.36;95329.31;4968175;28;20251;-68
2023/09/21 02:10:01;;;;;;;12.13;3.43;;;;;;;17.12;67.06;95334.66;4968083;28;20536;-68
2023/09/21 02:12:27;;;;;;;4.20;3.10;;;;;;;17.18;66.60;95317.41;4967866;28;20196;-68
2023/09/21 02:14:52;;;;;;;6.67;3.17;;;;;;;17.08;67.23;95319.19;4968192;28;20188;-68
2023/09/21 02:17:18;;;;;;;5.63;3.10;;;;;;;17.01;67.03;95323.31;4968011;28;20297;-68
2023/09/21 02:19:43;;;;;;;3.53;2.93;;;;;;;17.12;67.15;95326.72;4968255;28;20173;-68
2023/09/21 02:22:11;;;;;;;5.10;3.60;;;;;;;17.13;65.89;95325.75;4968380;28;20642;-70
2023/09/21 02:24:37;;;;;;;6.30;3.53;;;;;;;17.18;65.44;95319.22;4968307;28;20583;-69
2023/09/21 02:27:03;;;;;;;8.47;3.93;;;;;;;17.02;66.12;95317.06;4968438;28;20433;-69
2023/09/21 02:29:28;;;;;;;5.43;3.97;;;;;;;16.98;65.78;95307.69;4968013;28;20286;-69
2023/09/21 02:31:54;;;;;;;6.87;3.80;;;;;;;16.97;65.83;95309.50;4968018;28;20416;-69
2023/09/21 02:34:19;;;;;;;4.83;3.80;;;;;;;16.96;66.00;95302.53;4967900;28;20216;-69
2023/09/21 02:36:45;;;;;;;3.97;3.57;;;;;;;17.02;65.99;95301.16;4967880;28;20215;-69
2023/09/21 02:39:11;;;;;;;5.40;4.10;;;;;;;17.03;65.53;95301.03;4974254;28;20272;-69
2023/09/21 02:41:37;;;;;;;6.10;3.97;;;;;;;17.05;65.30;95304.38;4974194;28;20503;-69
2023/09/21 02:44:03;;;;;;;12.63;4.47;;;;;;;16.93;65.48;95300.97;4974624;28;20411;-69
2023/09/21 02:46:29;;;;;;;7.83;3.70;;;;;;;16.98;65.04;95294.44;4990920;28;20227;-69
2023/09/21 02:48:54;;;;;;;7.77;4.00;;;;;;;16.99;65.30;95301.44;4993662;28;20495;-69
2023/09/21 02:51:22;;;;;;;9.20;4.43;;;;;;;16.99;65.30;95290.84;4994064;28;20690;-68
2023/09/21 02:53:47;;;;;;;10.93;5.60;;;;;;;16.96;65.61;95277.81;4993651;28;20197;-69
2023/09/21 02:56:13;;;;;;;5.53;4.70;;;;;;;16.99;65.81;95286.38;4993174;28;20977;-69
2023/09/21 02:58:40;;;;;;;8.30;3.50;;;;;;;17.03;65.56;95279.81;4993671;28;20179;-69
2023/09/21 03:01:06;;;;;;;9.40;4.00;;;;;;;17.03;65.61;95278.97;4993396;28;20424;-68
2023/09/21 03:03:31;;;;;;;4.83;3.90;;;;;;;17.00;65.37;95277.44;4990718;28;20409;-68
2023/09/21 03:05:57;;;;;;;6.43;3.80;;;;;;;17.07;65.32;95270.63;4975105;28;20244;-69
2023/09/21 03:08:22;;;;;;;4.57;3.63;;;;;;;17.08;65.24;95271.47;4978090;28;20181;-69
2023/09/21 03:10:53;;;;;;;9.67;3.87;;;;;;;17.14;65.24;95263.78;4978648;28;20182;-69
2023/09/21 03:13:20;;;;;;;4.70;3.67;;;;;;;17.14;64.77;95263.78;4979459;28;20217;-69
2023/09/21 03:15:47;;;;;;;6.97;4.03;;;;;;;17.10;64.96;95262.41;4977668;28;20416;-69
2023/09/21 03:18:14;;;;;;;5.50;3.57;;;;;;;17.07;64.54;95253.88;4977618;28;20733;-69
2023/09/21 03:20:40;;;;;;;4.20;3.70;;;;;;;16.90;64.87;95255.34;4977139;28;20408;-69
2023/09/21 03:23:11;;;;;;;7.00;4.17;;;;;;;17.06;64.54;95238.97;4989697;28;21065;-68
2023/09/21 03:25:42;;;;;;;7.10;3.63;;;;;;;17.01;64.59;95244.66;4994225;28;20868;-69
2023/09/21 03:28:15;;;;;;;5.30;3.40;;;;;;;16.91;65.14;95251.72;4994267;28;20442;-68
2023/09/21 03:30:48;;;;;;;6.60;3.43;;;;;;;17.05;64.49;95256.66;4994347;28;20989;-69
2023/09/21 03:33:15;;;;;;;12.83;4.20;;;;;;;17.04;65.07;95243.56;4993716;28;21099;-68
2023/09/21 03:35:41;;;;;;;4.50;3.40;;;;;;;17.11;64.64;95248.16;4993389;28;20466;-69
2023/09/21 03:38:12;;;;;;;6.73;3.63;;;;;;;17.22;64.01;95243.72;4993052;28;20443;-68
2023/09/21 03:40:38;;;;;;;7.17;3.33;;;;;;;17.23;64.08;95237.47;4993611;28;20264;-69
2023/09/21 03:43:12;;;;;;;7.63;4.10;;;;;;;17.24;63.58;95242.59;4993401;28;20506;-69
2023/09/21 03:45:42;;;;;;;5.27;3.90;;;;;;;17.10;64.07;95248.28;4981778;28;20212;-70
2023/09/21 03:48:09;;;;;;;4.30;3.33;;;;;;;17.16;63.74;95257.53;4973717;28;21371;-68
2023/09/21 03:50:36;;;;;;;4.20;3.50;;;;;;;17.18;63.53;95252.94;4966396;28;20769;-69
2023/09/21 03:53:05;;;;;;;7.70;4.13;;;;;;;16.97;64.36;95245.91;4980676;28;20459;-69
2023/09/21 03:55:34;;;;;;;3.70;3.23;;;;;;;16.91;64.87;95246.44;4989480;28;20423;-70
2023/09/21 03:58:00;;;;;;;8.93;4.33;;;;;;;16.97;64.21;95240.59;4989544;28;20444;-69
2023/09/21 04:00:29;;;;;;;5.90;3.70;;;;;;;17.02;64.85;95232.25;4980151;28;20531;-68
2023/09/21 04:02:57;;;;;;;5.50;3.77;;;;;;;17.03;64.06;95223.31;4970727;28;20329;-70
2023/09/21 04:05:26;;;;;;;5.33;3.20;;;;;;;16.85;64.75;95225.78;4986854;28;20456;-69
2023/09/21 04:07:53;;;;;;;10.20;4.70;;;;;;;16.77;65.25;95223.78;4991592;28;20911;-69
2023/09/21 04:10:18;;;;;;;5.83;4.20;;;;;;;16.87;64.66;95221.19;4990498;28;20450;-69
2023/09/21 04:12:47;;;;;;;16.20;4.80;;;;;;;16.90;64.67;95218.25;4990137;28;20460;-69
2023/09/21 04:15:12;;;;;;;13.43;3.90;;;;;;;16.91;64.71;95207.53;4989537;28;20520;-69
2023/09/21 04:17:39;;;;;;;7.10;4.20;;;;;;;16.92;64.51;95200.41;4989743;28;21019;-71
2023/09/21 04:20:15;;;;;;;6.90;3.43;;;;;;;16.97;64.49;95198.19;4974619;28;20205;-69
2023/09/21 04:22:42;;;;;;;7.50;4.10;;;;;;;16.92;65.03;95206.56;4969859;28;20419;-69
2023/09/21 04:25:10;;;;;;;9.70;4.20;;;;;;;16.97;64.65;95197.38;4970125;28;20459;-68
2023/09/21 04:27:41;;;;;;;8.63;3.87;;;;;;;17.02;64.46;95195.97;4966903;28;20464;-68
2023/09/21 04:30:14;;;;;;;4.30;3.77;;;;;;;16.98;64.52;95205.16;4965428;28;20468;-68
2023/09/21 04:32:49;;;;;;;7.97;4.37;;;;;;;16.76;65.47;95215.97;4956262;28;20456;-68
2023/09/21 04:35:17;;;;;;;10.93;4.10;;;;;;;16.42;66.87;95203.84;4948977;29;20425;-69
2023/09/21 04:37:47;;;;;;;15.00;5.13;;;;;;;16.56;66.61;95205.28;4950462;28;20541;-68
2023/09/21 04:40:13;;;;;;;9.83;4.17;;;;;;;16.75;66.09;95206.31;4958850;28;20423;-68
2023/09/21 04:42:40;;;;;;;13.20;4.13;;;;;;;16.65;66.04;95204.50;4969781;28;20409;-68
2023/09/21 04:45:11;;;;;;;8.90;3.57;;;;;;;16.83;65.41;95204.72;4967349;28;20486;-69
2023/09/21 04:47:43;;;;;;;14.57;4.47;;;;;;;16.81;65.81;95205.81;4969354;28;20451;-68
2023/09/21 04:50:12;;;;;;;7.20;3.67;;;;;;;16.71;66.17;95211.06;4968325;28;20429;-69
2023/09/21 04:52:38;;;;;;;7.63;3.93;;;;;;;16.58;67.07;95208.63;4967381;28;20585;-69
2023/09/21 04:55:05;;;;;;;13.13;3.80;;;;;;;16.64;66.51;95213.41;4967587;28;20500;-70
2023/09/21 04:57:31;;;;;;;6.83;3.37;;;;;;;16.65;66.84;95212.44;4968054;28;20771;-69
2023/09/21 04:59:57;;;;;;;5.67;3.37;;;;;;;16.54;67.46;95206.41;4967936;28;20775;-69
2023/09/21 05:02:23;;;;;;;7.13;4.50;;;;;;;16.71;67.01;95211.06;4967698;28;20413;-70
2023/09/21 05:04:50;;;;;;;12.10;4.13;;;;;;;16.60;67.34;95200.56;4980967;28;20466;-68
2023/09/21 05:07:16;;;;;;;10.30;4.70;;;;;;;16.67;66.99;95201.69;4986550;28;20192;-69
2023/09/21 05:09:41;;;;;;;12.60;4.70;;;;;;;16.79;66.38;95199.81;4987369;28;20408;-70
2023/09/21 05:12:07;;;;;;;10.50;4.73;;;;;;;16.93;65.49;95197.63;4987118;28;20201;-70
2023/09/21 05:14:33;;;;;;;28.87;5.70;;;;;;;16.91;65.65;95196.06;4996057;28;20177;-73
2023/09/21 05:16:59;;;;;;;28.37;6.33;;;;;;;16.89;65.65;95196.22;4983293;28;20212;-74
2023/09/21 05:19:26;;;;;;;97.07;15.07;;;;;;;16.95;65.23;95200.13;4981601;28;20417;-74
2023/09/21 05:21:56;;;;;;;64.93;10.80;;;;;;;16.98;65.25;95202.50;4981873;28;20177;-72
2023/09/21 05:24:22;;;;;;;26.13;7.40;;;;;;;17.00;65.20;95197.09;4972179;28;20496;-72
2023/09/21 05:26:47;;;;;;;12.90;4.67;;;;;;;17.05;64.59;95192.22;4962220;28;20824;-73
2023/09/21 05:29:13;;;;;;;21.03;5.97;;;;;;;17.23;63.97;95181.78;4964454;28;20520;-71
2023/09/21 05:31:38;;;;;;;12.70;4.60;;;;;;;17.52;63.17;95187.09;4962676;28;20683;-72
2023/09/21 05:34:04;;;;;;;9.27;4.47;;;;;;;17.42;63.43;95199.53;4962592;28;20578;-71
2023/09/21 05:36:30;;;;;;;39.13;8.33;;;;;;;17.32;64.00;95194.22;4964229;28;20209;-72
2023/09/21 05:38:55;;;;;;;20.00;5.40;;;;;;;17.38;63.30;95191.00;4964573;28;20524;-70
2023/09/21 05:41:21;;;;;;;23.03;5.73;;;;;;;17.34;63.50;95189.63;4961447;28;20507;-71
2023/09/21 05:43:47;;;;;;;25.00;5.53;;;;;;;17.60;62.40;95189.03;4963514;28;20911;-71
2023/09/21 05:46:12;;;;;;;15.77;5.70;;;;;;;17.69;62.26;95190.84;4961686;28;20197;-72
2023/09/21 05:48:38;;;;;;;27.97;7.00;;;;;;;17.71;62.44;95191.56;4962331;28;20260;-72
2023/09/21 05:51:04;;;;;;;14.03;5.77;;;;;;;17.65;63.23;95192.13;4962394;28;20718;-72
2023/09/21 05:53:31;;;;;;;11.90;4.47;;;;;;;17.53;63.55;95186.97;4965101;28;20503;-72
2023/09/21 05:55:57;;;;;;;17.70;5.50;;;;;;;17.59;63.90;95176.75;4960510;28;20421;-73
2023/09/21 05:58:23;;;;;;;8.97;4.47;;;;;;;17.68;64.02;95170.63;4960753;28;20451;-72
2023/09/21 06:00:49;;;;;;;11.43;5.67;;;;;;;17.68;63.92;95170.63;4958841;28;20429;-71
2023/09/21 06:03:14;;;;;;;25.03;6.90;;;;;;;17.95;63.34;95169.91;4963392;28;20173;-73
2023/09/21 06:05:45;;;;;;;9.03;4.90;;;;;;;17.94;62.98;95168.25;4972292;28;20181;-70
2023/09/21 06:08:10;;;;;;;32.07;6.50;;;;;;;18.09;62.02;95173.94;4970444;28;20188;-70
2023/09/21 06:10:36;;;;;;;15.77;4.90;;;;;;;18.34;61.82;95181.28;4964466;28;20850;-71
2023/09/21 06:13:07;;;;;;;10.03;5.53;;;;;;;18.60;61.13;95173.47;4963552;28;20256;-73
2023/09/21 06:15:33;;;;;;;18.87;6.40;;;;;;;18.53;61.38;95174.22;4969694;28;20195;-71
2023/09/21 06:17:59;;;;;;;78.50;15.13;;;;;;;18.53;61.54;95168.91;4967920;28;20432;-69
2023/09/21 06:20:26;;;;;;;29.47;6.90;;;;;;;18.31;62.10;95165.63;4967057;28;20914;-71
2023/09/21 06:22:52;;;;;;;13.97;4.80;;;;;;;18.40;61.16;95162.13;4964931;28;20419;-70
2023/09/21 06:25:20;;;;;;;16.20;4.50;;;;;;;18.51;60.95;95163.72;4964973;28;20413;-71
2023/09/21 06:27:46;;;;;;;14.67;4.73;;;;;;;18.31;61.06;95167.47;4964888;28;20203;-71
2023/09/21 06:30:13;;;;;;;9.23;4.60;;;;;;;18.44;60.91;95164.47;4963300;28;20441;-73
2023/09/21 06:32:39;;;;;;;14.17;5.00;;;;;;;18.63;60.52;95146.59;4957238;28;20472;-70
2023/09/21 06:35:08;;;;;;;13.93;4.70;;;;;;;18.83;59.52;95151.88;4964813;28;20460;-71
2023/09/21 06:37:34;;;;;;;26.33;6.40;;;;;;;18.74;59.67;95144.75;4968378;28;20479;-71
2023/09/21 06:40:00;;;;;;;13.87;5.10;;;;;;;18.73;59.65;95148.38;4972383;28;20500;-70
2023/09/21 06:42:26;;;;;;;19.50;6.00;;;;;;;18.64;60.54;95147.47;4969996;28;20938;-70
2023/09/21 06:44:54;;;;;;;17.10;4.60;;;;;;;18.57;60.74;95151.69;4968834;28;20468;-70
2023/09/21 06:47:23;;;;;;;31.43;6.60;;;;;;;19.36;58.62;95143.09;4970960;28;20202;-69
2023/09/21 06:49:50;;;;;;;14.10;4.83;;;;;;;20.11;56.29;95136.59;4969308;28;20476;-70
2023/09/21 06:52:17;;;;;;;22.80;5.63;;;;;;;20.57;55.22;95138.00;4968976;28;20574;-70
2023/09/21 06:54:44;;;;;;;23.50;6.07;;;;;;;21.35;53.41;95132.44;4970318;28;20451;-71
2023/09/21 06:57:10;;;;;;;28.23;6.23;;;;;;;22.10;51.11;95133.28;4967949;28;20459;-71
2023/09/21 06:59:36;;;;;;;15.13;5.50;;;;;;;21.50;52.67;95127.31;4967516;28;20417;-69
2023/09/21 07:02:03;;;;;;;22.73;7.67;;;;;;;20.78;54.50;95132.25;4966325;28;20658;-70
2023/09/21 07:04:33;;;;;;;10.97;5.40;;;;;;;20.81;54.51;95120.44;4959586;28;20425;-71
2023/09/21 07:07:01;;;;;;;14.17;5.70;;;;;;;20.01;56.95;95128.69;4965277;28;20469;-71
2023/09/21 07:09:27;;;;;;;29.07;6.20;;;;;;;20.27;56.27;95140.19;4966526;28;20451;-70
2023/09/21 07:11:52;;;;;;;18.27;7.00;;;;;;;20.24;56.44;95132.47;4968201;28;20420;-69
2023/09/21 07:14:18;;;;;;;20.90;7.27;;;;;;;20.24;56.30;95127.16;4968899;28;20608;-70
2023/09/21 07:16:43;;;;;;;10.53;5.53;;;;;;;20.12;56.54;95123.09;4968983;28;20201;-71
2023/09/21 07:19:09;;;;;;;18.57;6.53;;;;;;;19.85;57.51;95119.59;4969471;28;20169;-71
2023/09/21 07:21:35;;;;;;;14.60;6.37;;;;;;;21.12;54.65;95110.88;4969101;28;20273;-71
2023/09/21 07:24:00;;;;;;;24.37;7.43;;;;;;;22.31;51.59;95109.53;4970615;28;20555;-71
2023/09/21 07:26:26;;;;;;;17.33;7.20;;;;;;;22.47;50.27;95095.31;4972800;28;20189;-71
2023/09/21 07:28:52;;;;;;;7.37;5.93;;;;;;;22.79;49.09;95094.31;4973415;28;20185;-71
2023/09/21 07:31:17;;;;;;;12.67;7.17;;;;;;;22.81;48.73;95089.63;4973300;28;20189;-70
2023/09/21 07:33:43;;;;;;;17.80;6.43;;;;;;;22.70;49.18;95095.38;4972756;28;20514;-72
2023/09/21 07:36:11;;;;;;;9.17;6.10;;;;;;;23.48;47.67;95098.97;4971715;28;20177;-71
2023/09/21 07:38:36;;;;;;;26.17;7.27;;;;;;;24.22;46.43;95098.34;4971805;28;20328;-70
2023/09/21 07:41:03;;;;;;;16.20;7.30;;;;;;;24.46;45.63;95087.38;4972780;28;20500;-71
2023/09/21 07:43:28;;;;;;;11.90;7.07;;;;;;;24.67;44.76;95091.97;4972506;28;20593;-71
2023/09/21 07:45:53;;;;;;;11.77;8.93;;;;;;;24.12;45.25;95090.56;4971808;28;20412;-70
2023/09/21 07:48:20;;;;;;;10.60;6.77;;;;;;;24.37;45.51;95098.34;4972271;28;20184;-69
2023/09/21 07:50:45;;;;;;;13.37;7.17;;;;;;;24.76;45.16;95099.91;4971941;28;20177;-71
2023/09/21 07:53:11;;;;;;;17.03;10.10;;;;;;;24.89;44.35;95097.41;4972121;28;20466;-70
2023/09/21 07:55:36;;;;;;;11.23;9.93;;;;;;;24.94;44.16;95095.00;4971371;28;20185;-69
2023/09/21 07:58:02;;;;;;;38.47;20.17;;;;;;;25.36;42.87;95093.44;4971858;28;20244;-70
2023/09/21 08:00:27;;;;;;;62.83;46.57;;;;;;;25.16;43.19;95087.81;4972218;28;20185;-69
2023/09/21 08:02:53;;;;;;;65.87;46.17;;;;;;;24.85;43.76;95093.44;4972341;28;20835;-71
2023/09/21 08:05:18;;;;;;;43.90;36.43;;;;;;;25.14;42.86;95095.22;4971654;28;20209;-70
2023/09/21 08:07:45;;;;;;;37.73;31.87;;;;;;;25.44;42.62;95087.09;4970841;28;20209;-69
2023/09/21 08:10:10;;;;;;;44.10;33.40;;;;;;;25.72;42.31;95081.78;4970479;28;20245;-69
2023/09/21 08:12:38;;;;;;;37.17;23.57;;;;;;;26.01;41.62;95074.59;4970583;28;20595;-71
2023/09/21 08:15:06;;;;;;;38.33;26.60;;;;;;;26.23;41.17;95083.47;4970482;28;20275;-71
2023/09/21 08:17:32;;;;;;;29.50;17.50;;;;;;;26.19;41.61;95086.50;4971459;28;20798;-70
2023/09/21 08:19:58;;;;;;;28.10;18.97;;;;;;;25.30;43.56;95091.50;4971474;28;20535;-69
2023/09/21 08:22:26;;;;;;;47.87;18.27;;;;;;;26.06;41.69;95086.44;4971994;28;20177;-70
2023/09/21 08:24:52;;;;;;;25.73;13.80;;;;;;;26.37;41.68;95074.44;4971611;28;20420;-70
2023/09/21 08:27:18;;;;;;;33.30;18.30;;;;;;;26.50;40.85;95069.13;4966298;28;20536;-69
2023/09/21 08:29:44;;;;;;;24.50;16.83;;;;;;;26.62;40.47;95069.41;4971547;28;20258;-71
2023/09/21 08:32:09;;;;;;;26.17;14.17;;;;;;;25.42;42.91;95078.38;4974695;28;20193;-70
2023/09/21 08:34:35;;;;;;;20.97;11.80;;;;;;;25.58;42.95;95074.63;4977283;28;20424;-69
2023/09/21 08:37:00;;;;;;;16.47;12.90;;;;;;;25.78;42.34;95065.72;4969635;28;20201;-69
2023/09/21 08:39:25;;;;;;;25.63;13.80;;;;;;;25.60;42.67;95061.84;4970050;28;20181;-71
2023/09/21 08:41:51;;;;;;;36.77;17.07;;;;;;;25.65;42.65;95062.09;4970092;28;20181;-71
2023/09/21 08:44:17;;;;;;;36.47;14.03;;;;;;;24.95;44.15;95059.09;4968465;28;20708;-71
2023/09/21 08:46:47;;;;;;;26.10;11.20;;;;;;;25.82;42.67;95054.56;4952881;28;20235;-70
2023/09/21 08:49:14;;;;;;;15.93;10.93;;;;;;;25.44;43.25;95052.19;4953840;28;20465;-70
2023/09/21 08:51:41;;;;;;;15.90;10.83;;;;;;;25.07;43.66;95057.56;4960760;28;20441;-69
2023/09/21 08:54:07;;;;;;;17.53;9.00;;;;;;;25.48;43.31;95056.97;4974084;28;20480;-69
2023/09/21 08:56:33;;;;;;;19.33;12.13;;;;;;;24.84;44.55;95054.22;4969009;28;20453;-70
2023/09/21 08:59:01;;;;;;;19.27;12.30;;;;;;;25.22;43.74;95049.50;4969849;28;20182;-71
2023/09/21 09:01:27;;;;;;;27.00;20.60;;;;;;;24.75;44.34;95039.25;4969562;28;20512;-71
2023/09/21 09:03:53;;;;;;;35.60;29.70;;;;;;;24.34;45.24;95043.25;4969653;28;20416;-72
2023/09/21 09:06:19;;;;;;;81.60;71.00;;;;;;;23.97;46.14;95044.16;4969610;28;20433;-70
2023/09/21 09:08:48;;;;;;;60.20;53.70;;;;;;;25.05;43.96;95038.13;4970084;28;20340;-69
2023/09/21 09:11:42;;;;;;;38.83;33.10;;;;;;;24.99;44.93;95032.69;4964788;28;20188;-71
2023/09/21 09:14:18;;;;;;;30.60;24.90;;;;;;;24.89;44.32;95036.50;4967553;28;20468;-69
2023/09/21 09:16:44;;;;;;;18.63;16.63;;;;;;;24.90;44.93;95032.00;4967864;28;20724;-70
2023/09/21 09:19:11;;;;;;;19.00;12.13;;;;;;;25.70;44.61;95020.19;4969231;28;20441;-70
2023/09/21 09:21:37;;;;;;;14.30;9.57;;;;;;;25.56;44.86;95024.63;4970821;28;20432;-68
2023/09/21 09:24:04;;;;;;;12.40;8.70;;;;;;;24.87;45.93;95025.13;4969642;28;20413;-69
2023/09/21 09:26:30;;;;;;;11.30;8.37;;;;;;;24.57;46.91;95027.06;4967011;28;20304;-71
2023/09/21 09:29:22;;;;;;;9.83;7.30;;;;;;;24.74;46.71;95029.53;4966787;28;20421;-69
2023/09/21 09:31:47;;;;;;;8.33;6.07;;;;;;;24.53;47.55;95028.47;4967573;28;20528;-70
2023/09/21 09:34:16;;;;;;;9.20;5.80;;;;;;;24.50;47.56;95026.97;4967535;28;20575;-69
2023/09/21 09:36:45;;;;;;;7.27;5.53;;;;;;;24.95;46.93;95026.88;4968413;28;20228;-70
2023/09/21 09:39:14;;;;;;;13.77;6.33;;;;;;;24.99;46.33;95025.47;4969284;28;20413;-69
2023/09/21 09:41:40;;;;;;;6.93;4.83;;;;;;;25.28;46.26;95029.13;4967861;28;20448;-70
2023/09/21 09:44:07;;;;;;;5.70;4.40;;;;;;;25.60;45.50;95018.84;4969918;28;20502;-69
2023/09/21 09:46:41;;;;;;;7.23;4.10;;;;;;;25.52;45.39;95011.78;4968257;28;20216;-70
2023/09/21 09:49:10;;;;;;;5.87;3.63;;;;;;;25.29;46.13;95011.97;4966900;28;20452;-69
2023/09/21 09:51:41;;;;;;;4.47;3.90;;;;;;;24.57;47.42;95013.66;4970746;28;20467;-69
2023/09/21 09:54:10;;;;;;;6.60;3.37;;;;;;;24.45;48.79;95007.91;4975306;28;20489;-70
2023/09/21 09:56:43;;;;;;;6.23;3.97;;;;;;;24.68;47.93;95015.00;4973231;28;20540;-70
2023/09/21 09:59:12;;;;;;;11.70;3.80;;;;;;;24.76;47.28;95014.91;4976576;28;20448;-70
2023/09/21 10:01:41;;;;;;;9.43;4.60;;;;;;;25.26;47.04;95005.13;4979910;28;20429;-71
2023/09/21 10:04:07;;;;;;;7.60;3.67;;;;;;;25.64;46.06;95004.00;4978457;28;20436;-70
2023/09/21 10:06:36;;;;;;;4.57;3.13;;;;;;;25.78;45.06;95000.41;4976239;28;20496;-71
2023/09/21 10:09:09;;;;;;;6.60;3.10;;;;;;;25.96;46.06;94992.69;4972254;28;20436;-70
2023/09/21 10:11:38;;;;;;;4.50;3.23;;;;;;;25.54;45.03;94993.59;4967606;28;20483;-70
2023/09/21 10:14:04;;;;;;;4.23;3.17;;;;;;;25.12;45.66;94996.09;4968623;28;20519;-71
2023/09/21 10:16:31;;;;;;;7.80;3.50;;;;;;;25.24;46.60;94990.25;4966370;28;20448;-71
2023/09/21 10:18:58;;;;;;;3.90;3.50;;;;;;;25.60;45.35;94982.06;4968966;28;20182;-70
2023/09/21 10:21:34;;;;;;;9.50;3.70;;;;;;;25.81;45.90;94983.06;4970880;28;20494;-71
2023/09/21 10:24:18;;;;;;;3.80;3.17;;;;;;;24.65;47.09;94989.41;4966603;28;20428;-70
2023/09/21 10:26:56;;;;;;;3.27;2.50;;;;;;;25.12;46.55;94977.28;4965102;28;20885;-70
2023/09/21 10:29:29;;;;;;;4.70;2.93;;;;;;;25.72;45.94;94974.28;4967010;28;20444;-70
2023/09/21 10:32:00;;;;;;;6.00;3.53;;;;;;;25.74;44.94;94966.88;4967334;28;20436;-69
2023/09/21 10:34:26;;;;;;;13.53;3.20;;;;;;;25.78;46.40;94965.47;4966241;28;20482;-69
2023/09/21 10:36:57;;;;;;;3.07;2.77;;;;;;;25.47;46.41;94964.00;4968140;28;20562;-71
2023/09/21 10:39:24;;;;;;;6.43;2.93;;;;;;;24.95;46.78;94957.13;4969448;28;20892;-69
2023/09/21 10:41:52;;;;;;;7.13;2.60;;;;;;;25.30;45.56;94959.91;4967205;28;20441;-70
2023/09/21 10:45:04;;;;;;;5.43;2.60;;;;;;;25.52;44.28;94953.50;4967122;28;20516;-72
2023/09/21 10:47:32;;;;;;;4.97;2.40;;;;;;;25.85;44.31;94947.53;4964854;28;20483;-71
2023/09/21 10:50:25;;;;;;;4.40;2.53;;;;;;;26.11;44.12;94946.88;4967029;28;20551;-71
2023/09/21 10:52:52;;;;;;;5.60;2.70;;;;;;;26.42;43.42;94947.44;4962319;28;20523;-71
2023/09/21 10:55:19;;;;;;;8.53;2.70;;;;;;;26.68;42.82;94936.78;4966280;28;20613;-72
2023/09/21 10:57:46;;;;;;;4.80;2.83;;;;;;;26.24;42.35;94935.34;4965188;28;20456;-69
2023/09/21 11:00:18;;;;;;;7.20;3.27;;;;;;;25.49;44.20;94931.56;4971585;28;20437;-70
2023/09/21 11:02:46;;;;;;;3.50;2.40;;;;;;;26.14;43.53;94930.34;4973148;28;20409;-69
2023/09/21 11:05:13;;;;;;;2.77;2.27;;;;;;;26.26;43.27;94917.16;4968384;28;20447;-69
2023/09/21 11:07:41;;;;;;;5.87;3.33;;;;;;;25.92;43.52;94915.34;4977660;28;20441;-68
2023/09/21 11:10:11;;;;;;;3.43;2.47;;;;;;;25.55;43.48;94904.75;4970119;28;20421;-66
2023/09/21 11:12:38;;;;;;;4.47;3.17;;;;;;;25.67;43.67;94896.16;4969404;28;20536;-68
2023/09/21 11:15:06;;;;;;;7.53;2.53;;;;;;;25.28;44.12;94906.44;4969648;28;20834;-68
2023/09/21 11:17:32;;;;;;;6.37;2.70;;;;;;;25.42;43.88;94901.13;4970527;28;20447;-67
2023/09/21 11:19:58;;;;;;;2.67;2.43;;;;;;;25.41;44.24;94897.63;4976367;28;20424;-69
2023/09/21 11:22:24;;;;;;;9.87;3.20;;;;;;;25.24;44.83;94890.91;4970068;28;20174;-68
2023/09/21 11:24:50;;;;;;;20.67;4.80;;;;;;;25.76;44.16;94882.34;4969606;28;20408;-67
2023/09/21 11:27:16;;;;;;;4.67;2.93;;;;;;;25.77;42.48;94877.81;4969522;28;20518;-67
2023/09/21 11:29:43;;;;;;;23.53;4.73;;;;;;;26.12;42.35;94873.25;4960903;28;20177;-67
2023/09/21 11:32:17;;;;;;;4.50;2.90;;;;;;;25.63;43.18;94868.88;4967640;28;20503;-67